Time;durP1;ratioP1;P1;durP2;ratioP2;P2;SDS_P1;SDS_P2;PMS_P1;PMS_P2;Temp;Humidity;BMP_temperature;BMP_pressure;BME280_temperature;BME280_humidity;BME280_pressure;Samples;Min_cycle;Max_cycle;Signal;HPM_P1;HPM_P2
2023/07/26 00:01:45;;;;;;;4.30;1.45;;;15.20;99.90;;;;;;5090831;28;20039;-50
2023/07/26 00:04:10;;;;;;;5.18;2.00;;;15.20;99.90;;;;;;5079621;28;20036;-52
2023/07/26 00:06:36;;;;;;;5.90;1.88;;;15.10;99.90;;;;;;5090952;28;20044;-47
2023/07/26 00:09:02;;;;;;;4.63;1.60;;;15.20;99.90;;;;;;5091642;28;20475;-50
2023/07/26 00:11:29;;;;;;;5.05;1.70;;;15.20;99.90;;;;;;5092582;28;20044;-49
2023/07/26 00:13:55;;;;;;;6.32;1.80;;;15.20;99.90;;;;;;5090890;28;20036;-48
2023/07/26 00:16:20;;;;;;;5.25;1.45;;;15.20;99.90;;;;;;5092222;28;20059;-48
2023/07/26 00:18:46;;;;;;;4.75;1.60;;;15.20;99.90;;;;;;5091784;28;20036;-48
2023/07/26 00:21:12;;;;;;;7.03;1.80;;;15.10;99.90;;;;;;5077164;28;20051;-48
2023/07/26 00:23:37;;;;;;;5.00;1.70;;;15.10;99.90;;;;;;5070135;28;20159;-51
2023/07/26 00:26:03;;;;;;;5.93;1.70;;;15.10;99.90;;;;;;5072287;28;20036;-50
2023/07/26 00:28:29;;;;;;;6.80;1.98;;;15.10;99.90;;;;;;5071839;28;20037;-50
2023/07/26 00:30:55;;;;;;;4.75;1.80;;;15.10;99.90;;;;;;5081548;28;20119;-48
2023/07/26 00:33:20;;;;;;;6.25;2.03;;;15.10;99.90;;;;;;5091769;28;20119;-49
2023/07/26 00:35:46;;;;;;;4.50;1.80;;;15.10;99.90;;;;;;5085364;28;20114;-51
2023/07/26 00:38:12;;;;;;;4.00;1.80;;;15.10;99.90;;;;;;5071853;28;20036;-53
2023/07/26 00:40:38;;;;;;;3.25;1.60;;;15.10;99.90;;;;;;5071305;28;20503;-50
2023/07/26 00:43:05;;;;;;;6.78;2.00;;;15.00;99.90;;;;;;5069867;28;20113;-52
2023/07/26 00:45:34;;;;;;;3.22;1.50;;;15.00;99.90;;;;;;5069928;28;20396;-49
2023/07/26 00:48:00;;;;;;;7.65;1.90;;;15.00;99.90;;;;;;5070669;28;20055;-51
2023/07/26 00:50:26;;;;;;;6.22;1.73;;;15.00;99.90;;;;;;5088861;28;20130;-48
2023/07/26 00:52:52;;;;;;;6.60;2.15;;;15.00;99.90;;;;;;5091837;28;20061;-49
2023/07/26 00:55:18;;;;;;;3.92;1.60;;;15.00;99.90;;;;;;5091711;28;20396;-50
2023/07/26 00:57:45;;;;;;;5.00;1.80;;;14.90;99.90;;;;;;5091449;28;20115;-51
2023/07/26 01:00:12;;;;;;;5.47;1.80;;;14.90;99.90;;;;;;5084159;28;20042;-52
2023/07/26 01:02:37;;;;;;;4.03;1.63;;;14.90;99.90;;;;;;5088520;28;20039;-50
2023/07/26 01:05:05;;;;;;;5.13;1.90;;;14.90;99.90;;;;;;5084384;28;20040;-47
2023/07/26 01:07:51;;;;;;;5.35;2.03;;;14.90;99.90;;;;;;5090612;28;20113;-48
2023/07/26 01:10:24;;;;;;;5.50;2.13;;;14.90;99.90;;;;;;5059576;28;20090;-50
2023/07/26 01:13:01;;;;;;;6.27;2.30;;;14.80;99.90;;;;;;5091240;28;20040;-50
2023/07/26 01:15:34;;;;;;;6.63;2.83;;;14.70;99.90;;;;;;5091264;28;20051;-49
2023/07/26 01:18:10;;;;;;;5.55;2.60;;;14.70;99.90;;;;;;5091182;28;20051;-48
2023/07/26 01:20:36;;;;;;;7.93;2.50;;;14.70;99.90;;;;;;5091502;28;20047;-51
2023/07/26 01:23:02;;;;;;;6.57;2.70;;;14.50;99.90;;;;;;5089713;28;20047;-51
2023/07/26 01:25:28;;;;;;;4.95;2.90;;;14.40;99.90;;;;;;5091079;28;20128;-48
2023/07/26 01:27:53;;;;;;;5.32;1.80;;;14.40;99.90;;;;;;5091081;28;20093;-49
2023/07/26 01:30:19;;;;;;;6.05;2.33;;;14.40;99.90;;;;;;5090926;28;20028;-51
2023/07/26 01:32:49;;;;;;;4.70;2.60;;;14.30;99.90;;;;;;5091141;28;20036;-47
2023/07/26 01:35:15;;;;;;;7.75;2.85;;;14.30;99.90;;;;;;5091031;28;20115;-51
2023/07/26 01:37:41;;;;;;;7.00;2.20;;;14.30;99.90;;;;;;5090428;28;20068;-46
2023/07/26 01:40:08;;;;;;;4.45;2.50;;;14.20;99.90;;;;;;5090948;28;20048;-51
2023/07/26 01:42:34;;;;;;;5.35;3.47;;;14.10;99.90;;;;;;5090849;28;20121;-50
2023/07/26 01:45:03;;;;;;;5.78;3.20;;;14.00;99.90;;;;;;5089125;28;20044;-50
2023/07/26 01:47:29;;;;;;;5.93;2.95;;;14.00;99.90;;;;;;5070901;28;20052;-49
2023/07/26 01:49:55;;;;;;;6.38;3.20;;;13.90;99.90;;;;;;5070664;28;20387;-49
2023/07/26 01:52:23;;;;;;;5.28;3.25;;;13.90;99.90;;;;;;5088212;28;20051;-48
2023/07/26 01:54:48;;;;;;;7.07;3.78;;;13.80;99.90;;;;;;5090520;28;20109;-49
2023/07/26 01:57:14;;;;;;;6.30;3.90;;;13.80;99.90;;;;;;5091014;28;20071;-47
2023/07/26 01:59:40;;;;;;;6.25;3.70;;;13.70;99.90;;;;;;5090825;28;20043;-49
2023/07/26 02:02:05;;;;;;;4.78;3.72;;;13.70;99.90;;;;;;5090921;28;20076;-51
2023/07/26 02:04:31;;;;;;;5.63;3.97;;;13.70;99.90;;;;;;5090726;28;20471;-50
2023/07/26 02:06:57;;;;;;;6.90;3.67;;;13.60;99.90;;;;;;5090837;28;20110;-50
2023/07/26 02:09:22;;;;;;;5.82;3.53;;;13.60;99.90;;;;;;5090325;28;20483;-50
2023/07/26 02:11:49;;;;;;;6.25;3.92;;;13.50;99.90;;;;;;5090851;28;20036;-50
2023/07/26 02:14:16;;;;;;;5.63;3.90;;;13.50;99.90;;;;;;5089308;28;20082;-46
2023/07/26 02:16:42;;;;;;;5.85;3.47;;;13.50;99.90;;;;;;5090630;28;20085;-49
2023/07/26 02:19:07;;;;;;;5.95;3.70;;;13.40;99.90;;;;;;5089282;28;20028;-49
2023/07/26 02:21:33;;;;;;;5.32;3.70;;;13.40;99.90;;;;;;5094562;28;20376;-49
2023/07/26 02:23:59;;;;;;;4.50;3.40;;;13.30;99.90;;;;;;5094571;28;20494;-46
2023/07/26 02:26:25;;;;;;;6.10;3.78;;;13.30;99.90;;;;;;5087755;28;20037;-51
2023/07/26 02:28:50;;;;;;;8.70;3.83;;;13.20;99.90;;;;;;5074117;28;20450;-51
2023/07/26 02:31:17;;;;;;;5.70;4.22;;;13.20;99.90;;;;;;5087710;28;20036;-49
2023/07/26 02:33:43;;;;;;;6.38;4.00;;;13.20;99.90;;;;;;5094358;28;20479;-49
2023/07/26 02:36:09;;;;;;;7.00;4.07;;;13.10;99.90;;;;;;5094416;28;20032;-48
2023/07/26 02:38:35;;;;;;;8.40;2.90;;;13.10;99.90;;;;;;5093915;28;20048;-49
2023/07/26 02:41:00;;;;;;;5.97;3.90;;;13.00;99.90;;;;;;5094227;28;20392;-49
2023/07/26 02:43:26;;;;;;;6.90;4.13;;;13.00;99.90;;;;;;5093860;28;20043;-52
2023/07/26 02:45:52;;;;;;;7.22;4.22;;;12.90;99.90;;;;;;5081214;28;20049;-50
2023/07/26 02:48:17;;;;;;;8.52;3.00;;;12.90;99.90;;;;;;5073649;28;20094;-52
2023/07/26 02:50:43;;;;;;;6.85;4.20;;;12.80;99.90;;;;;;5091050;28;20402;-49
2023/07/26 02:53:09;;;;;;;11.90;3.85;;;12.80;99.90;;;;;;5094266;28;20419;-48
2023/07/26 02:55:34;;;;;;;6.75;4.30;;;12.80;99.90;;;;;;5090403;28;20476;-51
2023/07/26 02:58:00;;;;;;;6.13;4.22;;;12.70;99.90;;;;;;5073432;28;20124;-50
2023/07/26 03:00:26;;;;;;;6.47;4.45;;;12.70;99.90;;;;;;5073316;28;20514;-47
2023/07/26 03:02:52;;;;;;;8.00;4.65;;;12.70;99.90;;;;;;5091399;28;20089;-52
2023/07/26 03:05:17;;;;;;;6.70;3.20;;;12.60;99.90;;;;;;5093666;28;20519;-49
2023/07/26 03:07:43;;;;;;;5.82;4.50;;;12.60;99.90;;;;;;5093290;28;20033;-49
2023/07/26 03:10:09;;;;;;;7.82;4.82;;;12.60;99.90;;;;;;5093869;28;20444;-50
2023/07/26 03:12:34;;;;;;;7.90;4.90;;;12.60;99.90;;;;;;5091872;28;20043;-52
2023/07/26 03:15:00;;;;;;;7.25;4.72;;;12.50;99.90;;;;;;5093655;28;20097;-50
2023/07/26 03:17:26;;;;;;;6.78;4.53;;;12.50;99.90;;;;;;5093490;28;20032;-50
2023/07/26 03:19:52;;;;;;;6.70;4.65;;;12.50;99.90;;;;;;5092461;28;20096;-47
2023/07/26 03:22:17;;;;;;;6.05;3.40;;;12.50;99.90;;;;;;5093535;28;20473;-49
2023/07/26 03:24:43;;;;;;;7.40;4.53;;;12.50;99.90;;;;;;5075909;28;20032;-45
2023/07/26 03:27:09;;;;;;;6.72;3.40;;;12.50;99.90;;;;;;5073098;28;20033;-51
2023/07/26 03:29:34;;;;;;;6.50;4.53;;;12.40;99.90;;;;;;5082067;28;20036;-49
2023/07/26 03:32:00;;;;;;;7.60;4.65;;;12.40;99.90;;;;;;5092820;28;20032;-48
2023/07/26 03:34:26;;;;;;;8.10;5.15;;;12.40;99.90;;;;;;5093088;28;20050;-49
2023/07/26 03:36:51;;;;;;;7.90;4.70;;;12.40;99.90;;;;;;5092951;28;20547;-49
2023/07/26 03:39:17;;;;;;;6.18;4.63;;;12.30;99.90;;;;;;5092551;28;20479;-48
2023/07/26 03:41:43;;;;;;;6.95;4.72;;;12.40;99.90;;;;;;5091485;28;20038;-49
2023/07/26 03:44:08;;;;;;;8.25;4.97;;;12.30;99.90;;;;;;5072985;28;20040;-50
2023/07/26 03:46:34;;;;;;;6.80;5.07;;;12.30;99.90;;;;;;5089921;28;20032;-49
2023/07/26 03:49:00;;;;;;;6.47;5.18;;;12.20;99.90;;;;;;5092424;28;20032;-49
2023/07/26 03:51:25;;;;;;;10.05;5.25;;;12.30;99.90;;;;;;5092483;28;20090;-49
2023/07/26 03:53:51;;;;;;;7.55;3.85;;;12.30;99.90;;;;;;5092880;28;20085;-51
2023/07/26 03:56:17;;;;;;;8.30;5.63;;;12.20;99.90;;;;;;5091241;28;20048;-49
2023/07/26 03:58:42;;;;;;;6.82;5.50;;;12.20;99.90;;;;;;5072559;28;20058;-45
2023/07/26 04:01:08;;;;;;;8.70;5.72;;;12.30;99.90;;;;;;5072458;28;20040;-48
2023/07/26 04:03:34;;;;;;;7.88;5.32;;;12.20;99.90;;;;;;5072444;28;20119;-47
2023/07/26 04:06:00;;;;;;;8.05;5.80;;;12.20;99.90;;;;;;5089932;28;20168;-47
2023/07/26 04:08:25;;;;;;;7.63;5.07;;;12.20;99.90;;;;;;5073733;28;20048;-52
2023/07/26 04:10:51;;;;;;;8.50;5.88;;;12.30;99.90;;;;;;5091974;28;20115;-50
2023/07/26 04:13:16;;;;;;;8.00;5.65;;;12.30;99.90;;;;;;5092608;28;20028;-48
2023/07/26 04:15:42;;;;;;;12.40;6.28;;;12.20;99.90;;;;;;5092608;28;20119;-49
2023/07/26 04:18:08;;;;;;;7.22;5.72;;;12.30;99.90;;;;;;5088118;28;20553;-51
2023/07/26 04:20:33;;;;;;;7.65;5.88;;;12.30;99.90;;;;;;5070113;28;20064;-49
2023/07/26 04:22:59;;;;;;;9.32;5.80;;;12.30;99.90;;;;;;5072087;28;20048;-49
2023/07/26 04:25:25;;;;;;;6.72;4.00;;;12.40;99.90;;;;;;5077144;28;20052;-48
2023/07/26 04:27:50;;;;;;;8.27;6.40;;;12.30;99.90;;;;;;5071462;28;20045;-50
2023/07/26 04:30:16;;;;;;;7.78;6.20;;;12.30;99.90;;;;;;5071871;28;20045;-51
2023/07/26 04:32:42;;;;;;;11.45;4.15;;;12.40;99.90;;;;;;5071702;28;20166;-50
2023/07/26 04:35:08;;;;;;;8.10;5.93;;;12.40;99.90;;;;;;5073302;28;20408;-52
2023/07/26 04:37:33;;;;;;;7.32;5.70;;;12.40;99.90;;;;;;5091537;28;20036;-51
2023/07/26 04:39:59;;;;;;;9.05;6.80;;;12.50;99.90;;;;;;5092052;28;20048;-50
2023/07/26 04:42:25;;;;;;;8.98;6.45;;;12.50;99.90;;;;;;5072778;28;20518;-47
2023/07/26 04:44:50;;;;;;;7.88;5.80;;;12.50;99.90;;;;;;5077193;28;20028;-50
2023/07/26 04:47:18;;;;;;;8.50;6.20;;;12.50;99.90;;;;;;5071551;28;20051;-47
2023/07/26 04:49:44;;;;;;;9.02;6.60;;;12.50;99.90;;;;;;5089116;28;20075;-46
2023/07/26 04:52:10;;;;;;;7.55;6.70;;;12.60;99.90;;;;;;5091493;28;20145;-50
2023/07/26 04:54:35;;;;;;;9.07;6.18;;;12.60;99.90;;;;;;5081052;28;20044;-49
2023/07/26 04:57:01;;;;;;;8.88;4.22;;;12.60;99.90;;;;;;5071282;28;20040;-45
2023/07/26 04:59:27;;;;;;;11.93;5.03;;;12.60;99.90;;;;;;5071446;28;20048;-50
2023/07/26 05:01:52;;;;;;;8.10;6.50;;;12.60;99.90;;;;;;5071573;28;20043;-48
2023/07/26 05:04:18;;;;;;;9.30;6.75;;;12.70;99.90;;;;;;5089083;28;20476;-46
2023/07/26 05:06:44;;;;;;;9.18;6.50;;;12.70;99.90;;;;;;5052717;28;20036;-51
2023/07/26 05:09:09;;;;;;;8.10;6.90;;;12.80;99.90;;;;;;5090749;28;20050;-46
2023/07/26 05:11:35;;;;;;;9.48;6.28;;;12.80;99.90;;;;;;5091401;28;20034;-51
2023/07/26 05:14:01;;;;;;;8.68;6.68;;;12.90;99.90;;;;;;5090150;28;20047;-50
2023/07/26 05:16:27;;;;;;;8.32;6.60;;;12.90;99.90;;;;;;5091097;28;20044;-49
2023/07/26 05:18:57;;;;;;;7.93;5.20;;;12.90;99.90;;;;;;5091289;28;20036;-48
2023/07/26 05:21:22;;;;;;;9.57;6.70;;;12.90;99.90;;;;;;5091741;28;20040;-50
2023/07/26 05:23:48;;;;;;;9.52;4.80;;;12.90;99.90;;;;;;5089590;28;20036;-46
2023/07/26 05:26:14;;;;;;;8.35;4.82;;;12.90;99.90;;;;;;5091502;28;20115;-47
2023/07/26 05:28:39;;;;;;;9.73;5.10;;;12.90;99.90;;;;;;5090942;28;20069;-46
2023/07/26 05:31:05;;;;;;;8.30;6.20;;;12.90;99.90;;;;;;5091084;28;20039;-49
2023/07/26 05:33:31;;;;;;;10.20;5.75;;;13.00;99.90;;;;;;5086145;28;20047;-49
2023/07/26 05:35:56;;;;;;;10.00;6.28;;;13.00;99.90;;;;;;5072371;28;20072;-50
2023/07/26 05:38:22;;;;;;;9.32;6.65;;;13.10;99.90;;;;;;5068604;28;20041;-51
2023/07/26 05:40:48;;;;;;;7.93;4.90;;;13.10;99.90;;;;;;5072450;28;20059;-52
2023/07/26 05:43:13;;;;;;;10.70;6.70;;;13.10;99.90;;;;;;5068508;28;20089;-46
2023/07/26 05:45:42;;;;;;;9.20;4.85;;;13.20;99.90;;;;;;5069334;28;21267;-49
2023/07/26 05:48:08;;;;;;;7.97;6.20;;;13.30;99.90;;;;;;5067908;28;20115;-48
2023/07/26 05:50:33;;;;;;;11.00;5.50;;;13.20;99.90;;;;;;5068944;28;20190;-49
2023/07/26 05:52:59;;;;;;;10.55;5.53;;;13.30;99.90;;;;;;5069314;28;20035;-51
2023/07/26 05:55:25;;;;;;;10.13;6.88;;;13.40;99.90;;;;;;5070849;28;20105;-52
2023/07/26 05:57:50;;;;;;;8.80;6.45;;;13.50;99.90;;;;;;5079850;28;20165;-52
2023/07/26 06:00:18;;;;;;;8.50;6.20;;;13.50;99.90;;;;;;5071725;28;20119;-51
2023/07/26 06:02:44;;;;;;;8.70;5.18;;;13.60;99.90;;;;;;5071178;28;20170;-48
2023/07/26 06:05:10;;;;;;;9.52;6.25;;;13.50;99.90;;;;;;5072237;28;20123;-49
2023/07/26 06:07:36;;;;;;;8.07;6.22;;;13.60;99.90;;;;;;5078245;28;20048;-50
2023/07/26 06:10:03;;;;;;;7.70;5.70;;;13.60;99.90;;;;;;5072781;28;20500;-50
2023/07/26 06:12:29;;;;;;;9.35;4.85;;;13.70;99.90;;;;;;5072602;28;20044;-52
2023/07/26 06:14:55;;;;;;;7.28;5.82;;;13.70;99.90;;;;;;5072571;28;20051;-45
2023/07/26 06:17:21;;;;;;;10.38;5.82;;;13.80;99.90;;;;;;5072480;28;20040;-47
2023/07/26 06:19:48;;;;;;;8.70;4.88;;;13.90;99.90;;;;;;5072250;28;20836;-49
2023/07/26 06:22:13;;;;;;;8.32;5.38;;;14.00;99.90;;;;;;5071895;28;20043;-47
2023/07/26 06:24:39;;;;;;;8.82;5.97;;;14.10;99.90;;;;;;5069585;28;20029;-51
2023/07/26 06:27:05;;;;;;;9.18;5.65;;;14.20;99.90;;;;;;5073365;28;20047;-49
2023/07/26 06:29:31;;;;;;;9.88;6.03;;;14.30;99.90;;;;;;5053548;28;20472;-49
2023/07/26 06:31:56;;;;;;;9.20;5.88;;;14.40;99.90;;;;;;5071441;28;20036;-50
2023/07/26 06:34:22;;;;;;;8.15;4.60;;;14.50;99.90;;;;;;5070098;28;20033;-48
2023/07/26 06:36:48;;;;;;;9.50;5.07;;;14.60;99.90;;;;;;5077215;28;20051;-48
2023/07/26 06:39:14;;;;;;;7.93;4.75;;;14.70;99.90;;;;;;5069691;28;20116;-49
2023/07/26 06:41:39;;;;;;;8.35;5.05;;;14.70;99.90;;;;;;5071121;28;20032;-51
2023/07/26 06:44:05;;;;;;;6.82;5.30;;;14.80;99.90;;;;;;5070522;28;20039;-49
2023/07/26 06:46:33;;;;;;;8.60;4.88;;;14.70;99.90;;;;;;5071806;28;20244;-50
2023/07/26 06:48:59;;;;;;;8.02;5.40;;;14.70;99.90;;;;;;5069867;28;20036;-51
2023/07/26 06:51:24;;;;;;;8.95;4.80;;;14.70;99.90;;;;;;5070127;28;20055;-48
2023/07/26 06:53:50;;;;;;;9.07;5.60;;;14.70;99.90;;;;;;5071143;28;20037;-47
2023/07/26 06:56:16;;;;;;;8.85;5.95;;;14.70;99.90;;;;;;5069867;28;20043;-48
2023/07/26 06:58:42;;;;;;;9.95;5.32;;;14.60;99.90;;;;;;5070872;28;20036;-49
2023/07/26 07:01:17;;;;;;;9.80;7.53;;;14.50;99.90;;;;;;5071890;28;20039;-50
2023/07/26 07:03:43;;;;;;;10.45;7.25;;;14.50;99.90;;;;;;5069768;28;20041;-51
2023/07/26 07:06:09;;;;;;;14.35;8.05;;;14.40;99.90;;;;;;5075590;28;20097;-47
2023/07/26 07:08:36;;;;;;;9.52;5.50;;;14.30;99.90;;;;;;5069321;28;20044;-48
2023/07/26 07:11:01;;;;;;;11.27;6.85;;;14.20;99.90;;;;;;5066377;28;20036;-53
2023/07/26 07:13:27;;;;;;;9.50;4.05;;;14.10;99.90;;;;;;5066631;28;20041;-49
2023/07/26 07:15:53;;;;;;;5.18;3.00;;;14.00;99.90;;;;;;5055915;28;20535;-54
2023/07/26 07:18:19;;;;;;;4.10;2.50;;;14.00;99.90;;;;;;5061665;28;20035;-50
2023/07/26 07:20:45;;;;;;;4.32;2.50;;;13.90;99.90;;;;;;5058522;28;20619;-49
2023/07/26 07:23:10;;;;;;;5.93;3.10;;;13.80;99.90;;;;;;5058821;28;20032;-49
2023/07/26 07:25:39;;;;;;;6.55;3.40;;;13.80;99.90;;;;;;5061216;28;20079;-49
2023/07/26 07:28:05;;;;;;;6.55;4.38;;;13.80;99.90;;;;;;5059326;28;20097;-53
2023/07/26 07:30:32;;;;;;;7.25;4.80;;;13.80;99.90;;;;;;5058042;28;20048;-49
2023/07/26 07:32:57;;;;;;;6.75;3.88;;;13.90;99.90;;;;;;5059486;28;20044;-49
2023/07/26 07:35:23;;;;;;;6.80;4.63;;;14.00;99.90;;;;;;5062247;28;20035;-48
2023/07/26 07:37:49;;;;;;;7.70;4.47;;;14.10;99.90;;;;;;5064423;28;20102;-50
2023/07/26 07:40:14;;;;;;;6.00;4.15;;;14.10;99.90;;;;;;5063047;28;20056;-48
2023/07/26 07:42:40;;;;;;;5.53;3.63;;;14.20;99.90;;;;;;5064549;28;20028;-49
2023/07/26 07:45:06;;;;;;;6.50;3.85;;;14.20;99.90;;;;;;5062806;28;20040;-50
2023/07/26 07:47:32;;;;;;;4.63;3.30;;;14.40;99.90;;;;;;5064198;28;20044;-47
2023/07/26 07:49:58;;;;;;;5.90;2.92;;;14.40;99.90;;;;;;5063379;28;20468;-49
2023/07/26 07:52:23;;;;;;;4.65;3.30;;;14.50;99.90;;;;;;5062138;28;20920;-49
2023/07/26 07:54:49;;;;;;;6.55;3.25;;;14.50;99.90;;;;;;5061769;28;20483;-47
2023/07/26 07:57:17;;;;;;;5.07;2.60;;;14.50;99.90;;;;;;5064024;28;20033;-50
2023/07/26 07:59:43;;;;;;;5.28;3.30;;;14.40;99.90;;;;;;5064618;28;20494;-50
2023/07/26 08:02:08;;;;;;;4.60;2.20;;;14.50;99.90;;;;;;5065934;28;20036;-50
2023/07/26 08:04:38;;;;;;;5.30;2.75;;;14.50;99.90;;;;;;5064823;28;20425;-48
2023/07/26 08:07:05;;;;;;;6.82;3.08;;;14.50;99.90;;;;;;5062702;28;20082;-49
2023/07/26 08:09:30;;;;;;;5.60;3.50;;;14.50;99.90;;;;;;5058789;28;20623;-50
2023/07/26 08:11:56;;;;;;;5.47;2.95;;;14.70;99.90;;;;;;5062679;28;20127;-50
2023/07/26 08:14:22;;;;;;;5.55;3.40;;;14.80;99.90;;;;;;5063113;28;20036;-51
2023/07/26 08:16:48;;;;;;;5.82;4.03;;;14.90;99.90;;;;;;5060938;28;20032;-51
2023/07/26 08:19:14;;;;;;;6.03;4.45;;;15.00;99.90;;;;;;5062584;28;23038;-50
2023/07/26 08:21:39;;;;;;;7.57;5.30;;;15.10;99.90;;;;;;5059408;28;20044;-49
2023/07/26 08:24:05;;;;;;;5.50;4.45;;;15.20;99.90;;;;;;5064024;28;20037;-49
2023/07/26 08:26:31;;;;;;;7.45;4.60;;;15.40;99.90;;;;;;5063537;28;20048;-47
2023/07/26 08:28:56;;;;;;;7.50;3.92;;;15.50;99.90;;;;;;5062962;28;20052;-47
2023/07/26 08:31:22;;;;;;;6.72;4.22;;;15.50;99.90;;;;;;5063294;28;20040;-50
2023/07/26 08:33:48;;;;;;;7.38;3.60;;;15.50;99.90;;;;;;5044715;28;20487;-50
2023/07/26 08:36:13;;;;;;;6.20;3.72;;;15.50;99.90;;;;;;5065768;28;20036;-51
2023/07/26 08:38:39;;;;;;;6.78;3.53;;;15.50;99.90;;;;;;5063377;28;20098;-50
2023/07/26 08:41:06;;;;;;;8.45;4.20;;;15.50;99.90;;;;;;5063365;28;20068;-48
2023/07/26 08:43:36;;;;;;;7.57;3.80;;;15.60;99.90;;;;;;5062112;28;20028;-51
2023/07/26 08:46:03;;;;;;;7.18;4.20;;;15.70;99.90;;;;;;5063490;28;20041;-52
2023/07/26 08:48:29;;;;;;;6.32;4.40;;;15.80;99.90;;;;;;5062375;28;20373;-51
2023/07/26 08:50:55;;;;;;;5.40;3.42;;;15.90;99.90;;;;;;5061177;28;20048;-50
2023/07/26 08:53:22;;;;;;;6.45;3.58;;;16.20;99.90;;;;;;5061912;28;20036;-49
2023/07/26 08:55:48;;;;;;;6.57;3.50;;;16.30;99.90;;;;;;5060308;28;20067;-50
2023/07/26 08:58:14;;;;;;;7.20;3.75;;;16.40;99.90;;;;;;5057990;28;20086;-51
2023/07/26 09:00:40;;;;;;;5.40;3.03;;;16.50;99.90;;;;;;5064542;28;20037;-48
2023/07/26 09:03:10;;;;;;;5.90;3.40;;;16.70;99.90;;;;;;5067212;28;20029;-46
2023/07/26 09:05:37;;;;;;;5.28;3.38;;;16.70;99.90;;;;;;5060333;28;20162;-51
2023/07/26 09:08:02;;;;;;;6.88;3.28;;;16.70;99.90;;;;;;5065034;28;20047;-50
2023/07/26 09:10:29;;;;;;;6.18;3.85;;;16.80;99.90;;;;;;5066691;28;20044;-51
2023/07/26 09:13:12;;;;;;;5.95;3.80;;;16.80;99.90;;;;;;5067621;28;20495;-52
2023/07/26 09:15:40;;;;;;;7.00;4.32;;;16.80;99.90;;;;;;5065155;28;20044;-50
2023/07/26 09:18:06;;;;;;;6.57;4.00;;;16.80;99.90;;;;;;5069366;28;20040;-48
2023/07/26 09:20:33;;;;;;;7.70;4.03;;;16.70;99.90;;;;;;5063124;28;20028;-46
2023/07/26 09:22:59;;;;;;;7.38;3.95;;;16.70;99.90;;;;;;5067929;28;20044;-51
2023/07/26 09:25:37;;;;;;;6.22;3.90;;;16.90;99.90;;;;;;5064716;28;20052;-49
2023/07/26 09:28:04;;;;;;;7.32;4.07;;;17.10;99.90;;;;;;5066272;28;20632;-47
2023/07/26 09:30:33;;;;;;;5.72;3.97;;;17.20;99.90;;;;;;5069297;28;20072;-53
2023/07/26 09:33:01;;;;;;;7.60;3.95;;;17.30;99.90;;;;;;5070632;28;20036;-50
2023/07/26 09:35:27;;;;;;;5.40;3.20;;;17.40;99.90;;;;;;5070591;28;20033;-49
2023/07/26 09:37:52;;;;;;;8.20;3.78;;;17.50;99.90;;;;;;5070816;28;20032;-50
2023/07/26 09:40:31;;;;;;;6.63;3.58;;;17.60;99.90;;;;;;5073131;28;20115;-49
2023/07/26 09:42:57;;;;;;;5.55;3.15;;;17.70;99.90;;;;;;5090612;28;20040;-48
2023/07/26 09:45:24;;;;;;;5.25;3.50;;;17.80;99.90;;;;;;5089182;28;20043;-48
2023/07/26 09:47:53;;;;;;;5.97;2.90;;;17.80;99.90;;;;;;5089371;28;20040;-52
2023/07/26 09:50:29;;;;;;;5.70;2.83;;;17.90;99.90;;;;;;5082932;28;20079;-53
2023/07/26 09:52:58;;;;;;;5.05;2.30;;;18.20;99.90;;;;;;5069752;28;20045;-52
2023/07/26 09:55:26;;;;;;;5.85;2.45;;;18.40;99.90;;;;;;5069885;28;20113;-48
2023/07/26 09:57:53;;;;;;;6.10;3.10;;;18.60;99.90;;;;;;5069463;28;20112;-51
2023/07/26 10:00:20;;;;;;;5.88;3.10;;;18.60;99.90;;;;;;5071999;28;20492;-53
2023/07/26 10:02:54;;;;;;;5.38;3.00;;;18.60;99.90;;;;;;5070419;28;20154;-51
2023/07/26 10:05:21;;;;;;;4.80;2.53;;;18.70;99.90;;;;;;5088161;28;20103;-51
2023/07/26 10:07:47;;;;;;;5.43;2.55;;;19.00;99.90;;;;;;5090330;28;20071;-49
2023/07/26 10:10:17;;;;;;;6.07;2.72;;;19.20;99.90;;;;;;5071764;28;20395;-51
2023/07/26 10:12:47;;;;;;;6.03;2.40;;;19.30;99.90;;;;;;5070153;28;20040;-49
2023/07/26 10:15:15;;;;;;;5.72;2.50;;;19.50;99.90;;;;;;5069564;28;20154;-49
2023/07/26 10:17:42;;;;;;;6.05;2.80;;;19.70;99.90;;;;;;5088993;28;20048;-50
2023/07/26 10:20:09;;;;;;;5.65;2.90;;;19.60;99.90;;;;;;5091064;28;20040;-50
2023/07/26 10:22:38;;;;;;;5.75;2.67;;;19.40;99.90;;;;;;5090862;28;20059;-48
2023/07/26 10:25:05;;;;;;;7.10;2.97;;;19.10;99.90;;;;;;5089134;28;20486;-50
2023/07/26 10:27:30;;;;;;;5.20;2.50;;;18.90;99.90;;;;;;5086574;28;20044;-48
2023/07/26 10:29:56;;;;;;;4.63;2.30;;;18.90;99.90;;;;;;5069928;28;20054;-47
2023/07/26 10:32:22;;;;;;;3.75;1.75;;;19.10;99.90;;;;;;5056356;28;20453;-48
2023/07/26 10:34:59;;;;;;;5.07;1.98;;;19.30;99.90;;;;;;5067307;28;20029;-50
2023/07/26 10:37:32;;;;;;;4.20;1.95;;;19.60;99.90;;;;;;5081523;28;20040;-48
2023/07/26 10:39:59;;;;;;;4.25;1.80;;;19.70;99.90;;;;;;5089644;28;20489;-50
2023/07/26 10:42:29;;;;;;;5.88;2.22;;;19.60;99.90;;;;;;5093971;28;20468;-50
2023/07/26 10:44:58;;;;;;;5.72;2.10;;;19.40;99.90;;;;;;5094062;28;20071;-51
2023/07/26 10:47:24;;;;;;;4.10;2.22;;;19.30;99.90;;;;;;5093599;28;20036;-48
2023/07/26 10:49:52;;;;;;;5.35;2.10;;;19.00;99.90;;;;;;5094278;28;20040;-46
2023/07/26 10:52:18;;;;;;;7.28;2.67;;;18.80;99.90;;;;;;5093298;28;20048;-48
2023/07/26 10:54:51;;;;;;;5.47;2.72;;;18.60;99.90;;;;;;5093529;28;20117;-52
2023/07/26 10:57:26;;;;;;;6.68;2.92;;;18.30;99.90;;;;;;5093999;28;20040;-49
2023/07/26 11:00:04;;;;;;;7.63;3.33;;;17.90;99.90;;;;;;5092560;28;20040;-50
2023/07/26 11:02:36;;;;;;;6.43;3.00;;;17.50;99.90;;;;;;5084158;28;20101;-52
2023/07/26 11:05:10;;;;;;;7.57;3.47;;;17.30;99.90;;;;;;5082980;28;20047;-48
2023/07/26 11:08:04;;;;;;;6.72;3.30;;;17.10;99.90;;;;;;5093405;28;20086;-49
2023/07/26 11:10:32;;;;;;;6.30;3.73;;;17.00;99.90;;;;;;5090513;28;20032;-49
2023/07/26 11:13:18;;;;;;;6.82;3.33;;;17.00;99.90;;;;;;5073445;28;20052;-48
2023/07/26 11:15:49;;;;;;;7.78;2.90;;;17.10;99.90;;;;;;5092020;28;20040;-48
2023/07/26 11:18:16;;;;;;;5.85;2.90;;;17.20;99.90;;;;;;5084662;28;20094;-51
2023/07/26 11:20:45;;;;;;;8.60;3.40;;;17.40;99.90;;;;;;5072925;28;20047;-51
2023/07/26 11:23:19;;;;;;;6.95;3.72;;;17.50;99.90;;;;;;5073185;28;20044;-48
2023/07/26 11:25:45;;;;;;;;;;;17.60;99.90;;;;;;5073519;28;20041;-50
2023/07/26 11:28:11;;;;;;;5.85;3.47;;;17.70;99.90;;;;;;5085006;28;20282;-52
2023/07/26 11:30:46;;;;;;;5.93;3.70;;;17.90;99.90;;;;;;5091738;28;20135;-47
2023/07/26 11:33:12;;;;;;;6.47;3.63;;;17.90;99.90;;;;;;5093066;28;20036;-50
2023/07/26 11:35:41;;;;;;;7.22;3.78;;;18.00;99.90;;;;;;5093077;28;20043;-51
2023/07/26 11:38:08;;;;;;;5.72;3.00;;;17.90;99.90;;;;;;5071317;28;20071;-51
2023/07/26 11:40:41;;;;;;;5.05;2.47;;;17.80;99.90;;;;;;5072819;28;20466;-52
2023/07/26 11:43:07;;;;;;;7.37;2.27;;;17.70;99.90;;;;;;5072650;28;20500;-49
2023/07/26 11:45:36;;;;;;;7.10;2.90;;;17.60;99.90;;;;;;5072848;28;20033;-51
2023/07/26 11:48:02;;;;;;;4.97;2.33;;;17.50;99.90;;;;;;5072475;28;20048;-51
2023/07/26 11:50:27;;;;;;;4.80;2.20;;;17.60;99.90;;;;;;5072871;28;20487;-52
2023/07/26 11:53:07;;;;;;;4.30;2.17;;;17.80;99.90;;;;;;5072157;28;20515;-53
2023/07/26 11:55:34;;;;;;;5.35;2.55;;;17.90;99.90;;;;;;5072513;28;20040;-51
2023/07/26 11:58:03;;;;;;;5.03;2.42;;;17.90;99.90;;;;;;5071895;28;20049;-51
2023/07/26 12:00:31;;;;;;;5.55;2.55;;;18.00;99.90;;;;;;5084204;28;20040;-50
2023/07/26 12:02:57;;;;;;;5.05;2.63;;;18.00;99.90;;;;;;5092139;28;20395;-51
2023/07/26 12:05:26;;;;;;;5.10;2.30;;;18.10;99.90;;;;;;5078177;28;20048;-47
2023/07/26 12:07:54;;;;;;;4.43;2.30;;;18.20;99.90;;;;;;5072072;28;20044;-50
2023/07/26 12:10:40;;;;;;;4.00;1.80;;;18.20;99.90;;;;;;5092170;28;20146;-50
2023/07/26 12:13:20;;;;;;;5.32;1.92;;;18.20;99.90;;;;;;5092144;28;20039;-50
2023/07/26 12:16:00;;;;;;;5.40;2.30;;;18.20;99.90;;;;;;5080571;28;20491;-50
2023/07/26 12:18:27;;;;;;;4.63;2.00;;;18.20;99.90;;;;;;5073315;28;20040;-49
2023/07/26 12:21:04;;;;;;;5.57;2.33;;;18.00;99.90;;;;;;5092486;28;20067;-52
2023/07/26 12:23:49;;;;;;;5.32;2.42;;;18.00;99.90;;;;;;5092126;28;20044;-52
2023/07/26 12:26:15;;;;;;;5.47;2.40;;;17.90;99.90;;;;;;5092394;28;20063;-47
2023/07/26 12:28:42;;;;;;;4.10;2.22;;;17.80;99.90;;;;;;5077004;28;20419;-49
2023/07/26 12:31:17;;;;;;;5.85;2.58;;;17.80;99.90;;;;;;5071601;28;20138;-49
2023/07/26 12:34:11;;;;;;;5.63;2.50;;;17.80;99.90;;;;;;5071979;28;20040;-49
2023/07/26 12:36:37;;;;;;;5.25;2.50;;;18.00;99.90;;;;;;5072019;28;20457;-51
2023/07/26 12:39:07;;;;;;;5.63;2.20;;;18.20;99.90;;;;;;5071244;28;20151;-49
2023/07/26 12:41:36;;;;;;;5.78;2.88;;;18.60;99.90;;;;;;5071852;28;20403;-50
2023/07/26 12:44:05;;;;;;;4.78;2.53;;;19.10;99.90;;;;;;5090857;28;20387;-50
2023/07/26 12:46:32;;;;;;;5.13;2.22;;;19.40;99.90;;;;;;5091816;28;20406;-50